createdAt,value
2022-12-18T00:04:24.563Z,98940.19
2022-12-18T00:09:26.254Z,98930.50
2022-12-18T00:14:33.241Z,98924.50
2022-12-18T00:19:35.120Z,98908.22
2022-12-18T00:24:37.102Z,98907.63
2022-12-18T00:29:41.986Z,98900.06
2022-12-18T00:34:44.012Z,98892.03
2022-12-18T00:39:45.835Z,98888.88
2022-12-18T00:44:47.757Z,98880.88
2022-12-18T00:49:49.656Z,98856.81
2022-12-18T00:54:51.683Z,98865.38
2022-12-18T00:59:53.568Z,98861.09
2022-12-18T01:04:55.386Z,98863.41
2022-12-18T01:09:57.244Z,98862.81
2022-12-18T01:14:59.142Z,98839.66
2022-12-18T01:20:01.027Z,98831.97
2022-12-18T01:25:03.089Z,98831.91
2022-12-18T01:30:05.861Z,98819.69
2022-12-18T01:35:07.759Z,98824.63
2022-12-18T01:40:10.022Z,98823.06
2022-12-18T01:45:14.919Z,98815.59
2022-12-18T01:50:31.207Z,98821.72
2022-12-18T01:55:36.675Z,98823.38
2022-12-18T02:00:38.493Z,98816.22
2022-12-18T02:05:46.357Z,98817.06
2022-12-18T02:11:06.981Z,98826.53
2022-12-18T02:16:31.003Z,98828.00
2022-12-18T02:21:49.545Z,98825.31
2022-12-18T02:26:51.971Z,98824.41
2022-12-18T02:31:53.842Z,98834.69
2022-12-18T02:36:55.692Z,98839.72
2022-12-18T02:41:58.644Z,98831.22
2022-12-18T02:47:00.594Z,98826.06
2022-12-18T02:52:02.378Z,98831.31
2022-12-18T02:57:21.669Z,98815.88
2022-12-18T03:02:51.402Z,98816.63
2022-12-18T03:07:57.775Z,98809.47
2022-12-18T03:13:09.804Z,98825.00
2022-12-18T03:18:18.063Z,98819.13
2022-12-18T03:23:26.258Z,98806.91
2022-12-18T03:28:28.734Z,98801.03
2022-12-18T03:33:52.952Z,98830.00
2022-12-18T03:38:54.893Z,98828.97
2022-12-18T03:44:13.451Z,98833.31
2022-12-18T03:49:36.336Z,98844.16
2022-12-18T03:54:38.270Z,98821.22
2022-12-18T03:59:40.286Z,98813.00
2022-12-18T04:04:42.093Z,98819.94
2022-12-18T04:09:45.250Z,98809.16
2022-12-18T04:14:47.145Z,98809.72
2022-12-18T04:19:49.050Z,98832.03
2022-12-18T04:24:51.007Z,98838.00
2022-12-18T04:29:52.817Z,98844.84
2022-12-18T04:34:54.718Z,98852.75
2022-12-18T04:39:56.732Z,98888.66
2022-12-18T04:44:58.600Z,98888.31
2022-12-18T04:50:00.450Z,98890.13
2022-12-18T04:55:02.384Z,98892.81
2022-12-18T05:00:05.784Z,98894.53
2022-12-18T05:05:08.787Z,98901.13
2022-12-18T05:10:10.636Z,98888.25
2022-12-18T05:15:12.475Z,98886.94
2022-12-18T05:20:14.475Z,98892.34
2022-12-18T05:25:16.465Z,98908.41
2022-12-18T05:30:18.492Z,98903.16
2022-12-18T05:35:20.539Z,98915.97
2022-12-18T05:40:22.449Z,98933.03
2022-12-18T05:45:24.878Z,98936.44
2022-12-18T05:50:26.457Z,98949.41
2022-12-18T05:55:28.329Z,98951.31
2022-12-18T06:00:30.353Z,98978.47
2022-12-18T06:05:36.365Z,98973.59
2022-12-18T06:10:38.376Z,98969.13
2022-12-18T06:15:40.317Z,98978.53
2022-12-18T06:20:42.393Z,98992.03
2022-12-18T06:25:44.355Z,99000.69
2022-12-18T06:30:47.121Z,99001.91
2022-12-18T06:35:48.994Z,99013.16
2022-12-18T06:40:50.983Z,99025.13
2022-12-18T06:45:52.864Z,99031.91
2022-12-18T06:50:54.756Z,99045.94
2022-12-18T06:56:10.212Z,99064.88
2022-12-18T07:01:13.169Z,99076.78
2022-12-18T07:06:18.613Z,99076.66
2022-12-18T07:11:20.725Z,99070.09
2022-12-18T07:16:25.672Z,99086.06
2022-12-18T07:21:27.961Z,99085.72
2022-12-18T07:26:29.784Z,99080.34
2022-12-18T07:31:31.730Z,99109.06
2022-12-18T07:36:33.786Z,99125.88
2022-12-18T07:41:35.654Z,99128.84
2022-12-18T07:46:37.882Z,99119.88
2022-12-18T07:51:58.061Z,99123.41
2022-12-18T07:57:00.312Z,99138.69
2022-12-18T08:02:02.198Z,99123.13
2022-12-18T08:07:04.747Z,99118.53
2022-12-18T08:12:07.211Z,99132.47
2022-12-18T08:17:08.953Z,99152.88
2022-12-18T08:22:11.414Z,99162.34
2022-12-18T08:27:28.941Z,99184.44
2022-12-18T08:32:31.795Z,99201.78
2022-12-18T08:37:33.710Z,99206.25
2022-12-18T08:42:35.568Z,99212.06
2022-12-18T08:47:37.409Z,99209.41
2022-12-18T08:52:39.348Z,99203.66
2022-12-18T08:57:41.302Z,99206.47
2022-12-18T09:02:43.292Z,99204.41
2022-12-18T09:07:45.161Z,99222.25
2022-12-18T09:12:48.134Z,99224.28
2022-12-18T09:17:50.342Z,99230.88
2022-12-18T09:22:52.298Z,99249.19
2022-12-18T09:27:54.107Z,99242.97
2022-12-18T09:32:56.208Z,99259.91
2022-12-18T09:37:58.033Z,99273.41
2022-12-18T09:43:02.230Z,99289.53
2022-12-18T09:48:04.272Z,99287.19
2022-12-18T09:53:27.549Z,99309.63
2022-12-18T09:58:43.365Z,99296.84
2022-12-18T10:03:45.527Z,99317.78
2022-12-18T10:08:49.681Z,99323.03
2022-12-18T10:13:55.531Z,99310.84
2022-12-18T10:19:03.111Z,99305.47
2022-12-18T10:24:37.396Z,99331.63
2022-12-18T10:29:39.387Z,99330.13
2022-12-18T10:34:41.210Z,99339.78
2022-12-18T10:39:42.989Z,99342.97
2022-12-18T10:44:44.771Z,99336.78
2022-12-18T10:49:52.053Z,99352.44
2022-12-18T10:54:58.358Z,99345.56
2022-12-18T11:00:01.530Z,99362.22
2022-12-18T11:05:03.822Z,99363.53
2022-12-18T11:10:06.303Z,99361.47
2022-12-18T11:15:22.380Z,99374.13
2022-12-18T11:20:35.079Z,99383.47
2022-12-18T11:25:36.977Z,99398.59
2022-12-18T11:30:38.955Z,99404.03
2022-12-18T11:35:52.261Z,99397.16
2022-12-18T11:41:03.133Z,99408.38
2022-12-18T11:46:19.841Z,99408.53
2022-12-18T11:51:28.019Z,99412.84
2022-12-18T11:56:29.741Z,99421.50
2022-12-18T12:01:52.000Z,99431.94
2022-12-18T12:07:05.338Z,99444.44
2022-12-18T12:12:46.593Z,99455.03
2022-12-18T12:17:57.564Z,99470.81
2022-12-18T12:23:11.140Z,99474.50
2022-12-18T12:28:34.290Z,99495.97
2022-12-18T12:34:08.268Z,99500.34
2022-12-18T12:39:12.064Z,99522.19
2022-12-18T12:44:20.507Z,99520.72
2022-12-18T12:49:22.478Z,99530.91
2022-12-18T12:54:25.558Z,99547.28
2022-12-18T12:59:39.424Z,99558.03
2022-12-18T13:04:46.882Z,99573.97
2022-12-18T13:10:19.948Z,99586.16
2022-12-18T13:15:24.666Z,99598.13
2022-12-18T13:20:31.768Z,99610.47
2022-12-18T13:25:35.933Z,99605.75
2022-12-18T13:30:46.861Z,99621.03
2022-12-18T13:35:49.109Z,99638.84
2022-12-18T13:40:51.265Z,99638.25
2022-12-18T13:46:22.332Z,99667.94
2022-12-18T13:51:24.934Z,99666.47
2022-12-18T13:56:31.989Z,99677.34
2022-12-18T14:01:34.188Z,99682.16
2022-12-18T14:06:36.616Z,99698.91
2022-12-18T14:11:38.858Z,99702.78
2022-12-18T14:16:42.777Z,99726.06
2022-12-18T14:21:48.906Z,99727.31
2022-12-18T14:26:51.003Z,99737.63
2022-12-18T14:32:18.192Z,99743.06
2022-12-18T14:37:25.452Z,99763.81
2022-12-18T14:42:28.118Z,99760.47
2022-12-18T14:47:29.969Z,99762.94
2022-12-18T14:52:32.558Z,99776.31
2022-12-18T14:57:36.537Z,99789.41
2022-12-18T15:02:38.787Z,99808.06
2022-12-18T15:07:44.276Z,99816.31
2022-12-18T15:12:47.545Z,99820.56
2022-12-18T15:17:49.506Z,99822.84
2022-12-18T15:22:51.305Z,99822.44
2022-12-18T15:27:53.174Z,99835.72
2022-12-18T15:33:18.420Z,99845.06
2022-12-18T15:38:20.276Z,99839.34
2022-12-18T15:43:25.458Z,99853.81
2022-12-18T15:48:27.350Z,99859.50
2022-12-18T15:53:31.732Z,99865.22
2022-12-18T15:58:33.609Z,99876.88
2022-12-18T16:03:35.596Z,99881.75
2022-12-18T16:08:37.698Z,99891.00
2022-12-18T16:13:41.968Z,99899.88
2022-12-18T16:18:44.194Z,99913.69
2022-12-18T16:23:46.090Z,99925.19
2022-12-18T16:28:48.648Z,99947.63
2022-12-18T16:33:50.560Z,99956.13
2022-12-18T16:38:52.422Z,99970.31
2022-12-18T16:43:55.122Z,99967.97
2022-12-18T16:48:58.875Z,99979.34
2022-12-18T16:54:01.364Z,99977.09
2022-12-18T16:59:05.023Z,99995.38
2022-12-18T17:04:07.019Z,100008.81
2022-12-18T17:09:12.996Z,100008.50
2022-12-18T17:14:17.292Z,100013.91
2022-12-18T17:19:19.146Z,100011.56
2022-12-18T17:24:21.240Z,100021.38
2022-12-18T17:29:23.034Z,100026.38
2022-12-18T17:34:26.942Z,100052.91
2022-12-18T17:39:28.789Z,100048.28
2022-12-18T17:44:31.334Z,100059.53
2022-12-18T17:49:33.176Z,100070.19
2022-12-18T17:54:35.008Z,100077.94
2022-12-18T17:59:36.768Z,100080.84
2022-12-18T18:04:38.577Z,100092.94
2022-12-18T18:09:40.419Z,100105.69
2022-12-18T18:14:42.239Z,100111.13
2022-12-18T18:19:44.169Z,100111.94
2022-12-18T18:24:50.825Z,100123.28
2022-12-18T18:29:53.787Z,100136.16
2022-12-18T18:34:55.703Z,100142.63
2022-12-18T18:39:57.591Z,100147.22
2022-12-18T18:44:59.411Z,100163.19
2022-12-18T18:50:01.221Z,100166.47
2022-12-18T18:55:13.241Z,100181.34
2022-12-18T19:00:16.330Z,100196.81
2022-12-18T19:05:18.444Z,100213.81
2022-12-18T19:10:20.248Z,100214.31
2022-12-18T19:15:22.060Z,100225.91
2022-12-18T19:20:24.099Z,100220.28
2022-12-18T19:25:37.575Z,100239.97
2022-12-18T19:30:42.689Z,100246.06
2022-12-18T19:35:44.664Z,100255.25
2022-12-18T19:40:46.840Z,100262.50
2022-12-18T19:45:55.077Z,100268.47
2022-12-18T19:50:57.048Z,100272.00
2022-12-18T19:55:59.119Z,100273.34
2022-12-18T20:01:00.960Z,100276.06
2022-12-18T20:06:30.261Z,100278.78
2022-12-18T20:11:32.617Z,100288.81
2022-12-18T20:16:34.682Z,100296.53
2022-12-18T20:21:37.727Z,100298.44
2022-12-18T20:26:39.688Z,100307.38
2022-12-18T20:31:41.581Z,100316.38
2022-12-18T20:36:43.985Z,100318.97
2022-12-18T20:41:46.237Z,100312.41
2022-12-18T20:46:48.368Z,100322.19
2022-12-18T20:51:52.980Z,100324.16
2022-12-18T20:56:55.419Z,100322.00
2022-12-18T21:01:57.453Z,100343.56
2022-12-18T21:07:02.567Z,100337.88
2022-12-18T21:12:05.275Z,100336.50
2022-12-18T21:17:07.365Z,100331.78
2022-12-18T21:22:10.149Z,100345.72
2022-12-18T21:27:13.008Z,100340.88
2022-12-18T21:32:19.927Z,100351.19
2022-12-18T21:37:22.554Z,100346.75
2022-12-18T21:42:24.479Z,100352.75
2022-12-18T21:47:26.363Z,100366.69
2022-12-18T21:52:32.091Z,100369.16
2022-12-18T21:57:34.595Z,100382.84
2022-12-18T22:02:36.524Z,100378.81
2022-12-18T22:07:38.384Z,100379.22
2022-12-18T22:12:43.901Z,100389.63
2022-12-18T22:17:46.932Z,100372.38
2022-12-18T22:22:49.171Z,100373.94
2022-12-18T22:27:50.866Z,100371.56
2022-12-18T22:32:52.779Z,100374.34
2022-12-18T22:37:54.720Z,100384.72
2022-12-18T22:42:56.594Z,100383.34
2022-12-18T22:47:58.410Z,100391.84
2022-12-18T22:53:00.268Z,100400.00
2022-12-18T22:58:02.139Z,100393.53
2022-12-18T23:03:04.364Z,100395.28
2022-12-18T23:08:09.256Z,100409.56
2022-12-18T23:13:11.146Z,100419.56
2022-12-18T23:18:13.048Z,100419.91
2022-12-18T23:23:15.060Z,100414.25
2022-12-18T23:28:16.923Z,100416.81
2022-12-18T23:33:18.907Z,100415.66
2022-12-18T23:38:20.918Z,100426.00
2022-12-18T23:43:22.917Z,100440.53
2022-12-18T23:48:24.812Z,100452.38
2022-12-18T23:53:26.730Z,100451.13
2022-12-18T23:58:28.634Z,100458.38
